sensor_id;sensor_type;location;lat;lon;timestamp;P1;durP1;ratioP1;P2;durP2;ratioP2
5125;SDS011;63008;53.112;8.896;2022-10-15T00:01:11;63.90;;;34.83;;
5125;SDS011;63008;53.112;8.896;2022-10-15T00:03:13;69.20;;;35.27;;
5125;SDS011;63008;53.112;8.896;2022-10-15T00:05:15;67.67;;;35.27;;
5125;SDS011;63008;53.112;8.896;2022-10-15T00:07:16;64.93;;;34.77;;
5125;SDS011;63008;53.112;8.896;2022-10-15T00:09:17;72.07;;;37.57;;
5125;SDS011;63008;53.112;8.896;2022-10-15T00:11:19;67.53;;;35.90;;
5125;SDS011;63008;53.112;8.896;2022-10-15T00:13:21;65.20;;;36.03;;
5125;SDS011;63008;53.112;8.896;2022-10-15T00:15:22;65.97;;;36.17;;
5125;SDS011;63008;53.112;8.896;2022-10-15T00:17:23;76.77;;;36.63;;
5125;SDS011;63008;53.112;8.896;2022-10-15T00:19:24;67.53;;;35.20;;
5125;SDS011;63008;53.112;8.896;2022-10-15T00:21:25;74.70;;;37.87;;
5125;SDS011;63008;53.112;8.896;2022-10-15T00:23:27;74.33;;;37.90;;
5125;SDS011;63008;53.112;8.896;2022-10-15T00:25:28;65.87;;;35.00;;
5125;SDS011;63008;53.112;8.896;2022-10-15T00:27:28;73.00;;;37.70;;
5125;SDS011;63008;53.112;8.896;2022-10-15T00:29:29;76.07;;;37.97;;
5125;SDS011;63008;53.112;8.896;2022-10-15T00:31:31;78.77;;;38.47;;
5125;SDS011;63008;53.112;8.896;2022-10-15T00:33:32;77.80;;;37.57;;
5125;SDS011;63008;53.112;8.896;2022-10-15T00:35:33;86.90;;;40.60;;
5125;SDS011;63008;53.112;8.896;2022-10-15T00:37:34;76.23;;;37.17;;
5125;SDS011;63008;53.112;8.896;2022-10-15T00:39:35;68.60;;;36.87;;
5125;SDS011;63008;53.112;8.896;2022-10-15T00:41:39;76.90;;;37.67;;
5125;SDS011;63008;53.112;8.896;2022-10-15T00:43:46;73.63;;;36.67;;
5125;SDS011;63008;53.112;8.896;2022-10-15T00:45:51;77.50;;;38.17;;
5125;SDS011;63008;53.112;8.896;2022-10-15T00:47:53;77.80;;;37.20;;
5125;SDS011;63008;53.112;8.896;2022-10-15T00:49:57;72.77;;;37.40;;
5125;SDS011;63008;53.112;8.896;2022-10-15T00:52:01;65.60;;;34.90;;
5125;SDS011;63008;53.112;8.896;2022-10-15T00:54:05;69.50;;;36.00;;
5125;SDS011;63008;53.112;8.896;2022-10-15T00:56:07;63.00;;;34.80;;
5125;SDS011;63008;53.112;8.896;2022-10-15T00:58:09;72.20;;;35.77;;
5125;SDS011;63008;53.112;8.896;2022-10-15T01:00:13;75.77;;;36.53;;
5125;SDS011;63008;53.112;8.896;2022-10-15T01:02:18;70.17;;;35.63;;
5125;SDS011;63008;53.112;8.896;2022-10-15T01:04:20;71.93;;;35.80;;
5125;SDS011;63008;53.112;8.896;2022-10-15T01:06:23;60.50;;;33.07;;
5125;SDS011;63008;53.112;8.896;2022-10-15T01:08:24;66.47;;;35.60;;
5125;SDS011;63008;53.112;8.896;2022-10-15T01:10:26;81.73;;;38.27;;
5125;SDS011;63008;53.112;8.896;2022-10-15T01:12:40;78.10;;;39.20;;
5125;SDS011;63008;53.112;8.896;2022-10-15T01:14:55;76.27;;;38.10;;
5125;SDS011;63008;53.112;8.896;2022-10-15T01:27:34;106.07;;;43.73;;
5125;SDS011;63008;53.112;8.896;2022-10-15T01:32:01;103.73;;;43.30;;
5125;SDS011;63008;53.112;8.896;2022-10-15T01:34:12;105.30;;;43.23;;
5125;SDS011;63008;53.112;8.896;2022-10-15T01:38:57;104.57;;;44.30;;
5125;SDS011;63008;53.112;8.896;2022-10-15T01:41:15;105.03;;;44.40;;
5125;SDS011;63008;53.112;8.896;2022-10-15T01:43:49;114.40;;;44.70;;
5125;SDS011;63008;53.112;8.896;2022-10-15T01:46:18;105.57;;;42.47;;
5125;SDS011;63008;53.112;8.896;2022-10-15T01:48:25;108.87;;;42.80;;
5125;SDS011;63008;53.112;8.896;2022-10-15T01:50:29;102.83;;;43.90;;
5125;SDS011;63008;53.112;8.896;2022-10-15T01:52:34;113.80;;;45.63;;
5125;SDS011;63008;53.112;8.896;2022-10-15T01:54:38;132.27;;;46.43;;
5125;SDS011;63008;53.112;8.896;2022-10-15T01:56:40;121.00;;;45.10;;
5125;SDS011;63008;53.112;8.896;2022-10-15T01:58:49;121.00;;;45.80;;
5125;SDS011;63008;53.112;8.896;2022-10-15T02:00:54;142.40;;;47.27;;
5125;SDS011;63008;53.112;8.896;2022-10-15T02:03:00;136.00;;;47.00;;
5125;SDS011;63008;53.112;8.896;2022-10-15T02:05:03;126.67;;;46.40;;
5125;SDS011;63008;53.112;8.896;2022-10-15T02:10:03;125.37;;;46.40;;
5125;SDS011;63008;53.112;8.896;2022-10-15T02:11:47;119.90;;;46.87;;
5125;SDS011;63008;53.112;8.896;2022-10-15T02:14:14;112.23;;;43.80;;
5125;SDS011;63008;53.112;8.896;2022-10-15T02:21:20;113.87;;;45.97;;
5125;SDS011;63008;53.112;8.896;2022-10-15T02:23:40;118.03;;;45.73;;
5125;SDS011;63008;53.112;8.896;2022-10-15T02:25:51;117.33;;;46.33;;
5125;SDS011;63008;53.112;8.896;2022-10-15T02:27:54;121.57;;;46.70;;
5125;SDS011;63008;53.112;8.896;2022-10-15T02:29:57;114.73;;;47.30;;
5125;SDS011;63008;53.112;8.896;2022-10-15T02:32:01;114.87;;;45.73;;
5125;SDS011;63008;53.112;8.896;2022-10-15T02:34:05;103.93;;;43.30;;
5125;SDS011;63008;53.112;8.896;2022-10-15T02:36:08;106.83;;;47.07;;
5125;SDS011;63008;53.112;8.896;2022-10-15T02:38:10;111.87;;;45.00;;
5125;SDS011;63008;53.112;8.896;2022-10-15T02:40:15;132.07;;;49.00;;
5125;SDS011;63008;53.112;8.896;2022-10-15T02:42:17;124.93;;;47.80;;
5125;SDS011;63008;53.112;8.896;2022-10-15T02:44:19;135.43;;;49.20;;
5125;SDS011;63008;53.112;8.896;2022-10-15T02:46:20;137.37;;;50.00;;
5125;SDS011;63008;53.112;8.896;2022-10-15T02:48:21;125.30;;;47.77;;
5125;SDS011;63008;53.112;8.896;2022-10-15T02:50:23;124.63;;;47.00;;
5125;SDS011;63008;53.112;8.896;2022-10-15T02:52:24;122.80;;;46.00;;
5125;SDS011;63008;53.112;8.896;2022-10-15T02:54:25;134.03;;;48.93;;
5125;SDS011;63008;53.112;8.896;2022-10-15T02:56:26;125.23;;;45.67;;
5125;SDS011;63008;53.112;8.896;2022-10-15T02:58:27;118.53;;;47.27;;
5125;SDS011;63008;53.112;8.896;2022-10-15T03:00:30;130.37;;;49.10;;
5125;SDS011;63008;53.112;8.896;2022-10-15T03:02:31;131.43;;;48.77;;
5125;SDS011;63008;53.112;8.896;2022-10-15T03:04:32;124.20;;;47.23;;
5125;SDS011;63008;53.112;8.896;2022-10-15T03:06:33;127.23;;;47.87;;
5125;SDS011;63008;53.112;8.896;2022-10-15T03:08:34;120.83;;;47.97;;
5125;SDS011;63008;53.112;8.896;2022-10-15T03:10:35;128.03;;;47.27;;
5125;SDS011;63008;53.112;8.896;2022-10-15T03:12:36;135.00;;;48.77;;
5125;SDS011;63008;53.112;8.896;2022-10-15T03:14:37;125.07;;;47.20;;
5125;SDS011;63008;53.112;8.896;2022-10-15T03:16:38;113.43;;;44.50;;
5125;SDS011;63008;53.112;8.896;2022-10-15T03:18:39;112.60;;;45.23;;
5125;SDS011;63008;53.112;8.896;2022-10-15T03:20:40;109.77;;;42.87;;
5125;SDS011;63008;53.112;8.896;2022-10-15T03:22:41;116.13;;;45.00;;
5125;SDS011;63008;53.112;8.896;2022-10-15T03:24:42;108.10;;;44.83;;
5125;SDS011;63008;53.112;8.896;2022-10-15T03:26:43;108.60;;;44.53;;
5125;SDS011;63008;53.112;8.896;2022-10-15T03:28:44;109.40;;;45.10;;
5125;SDS011;63008;53.112;8.896;2022-10-15T03:30:45;113.87;;;44.93;;
5125;SDS011;63008;53.112;8.896;2022-10-15T03:32:46;103.63;;;42.90;;
5125;SDS011;63008;53.112;8.896;2022-10-15T03:34:47;120.40;;;44.40;;
5125;SDS011;63008;53.112;8.896;2022-10-15T03:36:48;105.80;;;43.60;;
5125;SDS011;63008;53.112;8.896;2022-10-15T03:38:49;120.47;;;45.20;;
5125;SDS011;63008;53.112;8.896;2022-10-15T03:40:50;123.57;;;46.50;;
5125;SDS011;63008;53.112;8.896;2022-10-15T03:42:51;109.30;;;44.33;;
5125;SDS011;63008;53.112;8.896;2022-10-15T03:44:52;115.73;;;44.17;;
5125;SDS011;63008;53.112;8.896;2022-10-15T03:46:53;119.87;;;43.73;;
5125;SDS011;63008;53.112;8.896;2022-10-15T03:48:54;104.00;;;42.03;;
5125;SDS011;63008;53.112;8.896;2022-10-15T03:50:55;99.23;;;41.53;;
5125;SDS011;63008;53.112;8.896;2022-10-15T03:52:57;102.93;;;43.40;;
5125;SDS011;63008;53.112;8.896;2022-10-15T03:54:58;97.57;;;40.30;;
5125;SDS011;63008;53.112;8.896;2022-10-15T03:56:59;94.83;;;42.40;;
5125;SDS011;63008;53.112;8.896;2022-10-15T03:58:59;95.20;;;40.77;;
5125;SDS011;63008;53.112;8.896;2022-10-15T04:01:01;91.00;;;41.00;;
5125;SDS011;63008;53.112;8.896;2022-10-15T04:03:08;75.80;;;36.77;;
5125;SDS011;63008;53.112;8.896;2022-10-15T04:05:09;89.37;;;39.50;;
5125;SDS011;63008;53.112;8.896;2022-10-15T04:07:10;86.27;;;38.20;;
5125;SDS011;63008;53.112;8.896;2022-10-15T04:09:11;86.73;;;38.80;;
5125;SDS011;63008;53.112;8.896;2022-10-15T04:11:12;92.53;;;39.80;;
5125;SDS011;63008;53.112;8.896;2022-10-15T04:13:13;85.63;;;37.47;;
5125;SDS011;63008;53.112;8.896;2022-10-15T04:15:14;80.73;;;37.47;;
5125;SDS011;63008;53.112;8.896;2022-10-15T04:17:15;87.37;;;37.30;;
5125;SDS011;63008;53.112;8.896;2022-10-15T04:19:16;85.27;;;37.07;;
5125;SDS011;63008;53.112;8.896;2022-10-15T04:21:17;92.10;;;38.23;;
5125;SDS011;63008;53.112;8.896;2022-10-15T04:23:18;85.00;;;38.33;;
5125;SDS011;63008;53.112;8.896;2022-10-15T04:25:19;95.93;;;39.87;;
5125;SDS011;63008;53.112;8.896;2022-10-15T04:27:20;101.07;;;41.97;;
5125;SDS011;63008;53.112;8.896;2022-10-15T04:29:21;97.67;;;39.90;;
5125;SDS011;63008;53.112;8.896;2022-10-15T04:31:22;95.03;;;38.77;;
5125;SDS011;63008;53.112;8.896;2022-10-15T04:33:23;111.90;;;40.90;;
5125;SDS011;63008;53.112;8.896;2022-10-15T04:35:25;82.30;;;38.07;;
5125;SDS011;63008;53.112;8.896;2022-10-15T04:37:25;103.83;;;40.23;;
5125;SDS011;63008;53.112;8.896;2022-10-15T04:39:26;92.53;;;37.90;;
5125;SDS011;63008;53.112;8.896;2022-10-15T04:41:27;103.23;;;40.30;;
5125;SDS011;63008;53.112;8.896;2022-10-15T04:43:30;91.57;;;39.70;;
5125;SDS011;63008;53.112;8.896;2022-10-15T04:45:31;96.40;;;40.90;;
5125;SDS011;63008;53.112;8.896;2022-10-15T04:47:32;100.57;;;38.90;;
5125;SDS011;63008;53.112;8.896;2022-10-15T04:49:33;98.50;;;41.07;;
5125;SDS011;63008;53.112;8.896;2022-10-15T04:51:34;94.97;;;39.17;;
5125;SDS011;63008;53.112;8.896;2022-10-15T04:53:35;97.37;;;41.33;;
5125;SDS011;63008;53.112;8.896;2022-10-15T04:55:36;103.70;;;42.73;;
5125;SDS011;63008;53.112;8.896;2022-10-15T04:57:37;88.77;;;40.67;;
5125;SDS011;63008;53.112;8.896;2022-10-15T04:59:38;103.77;;;41.63;;
5125;SDS011;63008;53.112;8.896;2022-10-15T05:01:39;106.07;;;41.77;;
5125;SDS011;63008;53.112;8.896;2022-10-15T05:03:41;101.03;;;41.03;;
5125;SDS011;63008;53.112;8.896;2022-10-15T05:05:43;103.97;;;41.57;;
5125;SDS011;63008;53.112;8.896;2022-10-15T05:07:44;108.43;;;42.83;;
5125;SDS011;63008;53.112;8.896;2022-10-15T05:09:45;102.30;;;42.97;;
5125;SDS011;63008;53.112;8.896;2022-10-15T05:11:46;107.27;;;42.40;;
5125;SDS011;63008;53.112;8.896;2022-10-15T05:13:47;117.27;;;43.40;;
5125;SDS011;63008;53.112;8.896;2022-10-15T05:15:48;108.03;;;42.37;;
5125;SDS011;63008;53.112;8.896;2022-10-15T05:17:49;114.23;;;41.53;;
5125;SDS011;63008;53.112;8.896;2022-10-15T05:19:50;118.67;;;44.77;;
5125;SDS011;63008;53.112;8.896;2022-10-15T05:21:51;119.97;;;44.27;;
5125;SDS011;63008;53.112;8.896;2022-10-15T05:23:52;116.17;;;43.37;;
5125;SDS011;63008;53.112;8.896;2022-10-15T05:25:53;111.40;;;45.27;;
5125;SDS011;63008;53.112;8.896;2022-10-15T05:27:54;114.17;;;45.83;;
5125;SDS011;63008;53.112;8.896;2022-10-15T05:29:55;123.60;;;45.00;;
5125;SDS011;63008;53.112;8.896;2022-10-15T05:31:56;105.67;;;42.00;;
5125;SDS011;63008;53.112;8.896;2022-10-15T05:33:57;109.00;;;44.00;;
5125;SDS011;63008;53.112;8.896;2022-10-15T05:38:13;112.03;;;44.73;;
5125;SDS011;63008;53.112;8.896;2022-10-15T05:40:14;109.30;;;42.80;;
5125;SDS011;63008;53.112;8.896;2022-10-15T05:42:15;125.53;;;45.73;;
5125;SDS011;63008;53.112;8.896;2022-10-15T05:44:16;123.07;;;45.33;;
5125;SDS011;63008;53.112;8.896;2022-10-15T05:46:18;104.13;;;41.73;;
5125;SDS011;63008;53.112;8.896;2022-10-15T05:48:19;113.87;;;43.83;;
5125;SDS011;63008;53.112;8.896;2022-10-15T05:50:21;110.43;;;43.67;;
5125;SDS011;63008;53.112;8.896;2022-10-15T05:52:22;101.40;;;41.17;;
5125;SDS011;63008;53.112;8.896;2022-10-15T05:54:23;108.53;;;40.07;;
5125;SDS011;63008;53.112;8.896;2022-10-15T05:56:24;120.70;;;43.20;;
5125;SDS011;63008;53.112;8.896;2022-10-15T05:58:26;104.53;;;40.83;;
5125;SDS011;63008;53.112;8.896;2022-10-15T06:00:29;117.13;;;42.07;;
5125;SDS011;63008;53.112;8.896;2022-10-15T06:02:31;110.40;;;42.03;;
5125;SDS011;63008;53.112;8.896;2022-10-15T06:04:32;94.73;;;39.73;;
5125;SDS011;63008;53.112;8.896;2022-10-15T06:06:33;106.20;;;41.23;;
5125;SDS011;63008;53.112;8.896;2022-10-15T06:08:34;111.97;;;41.97;;
5125;SDS011;63008;53.112;8.896;2022-10-15T06:10:35;103.03;;;40.13;;
5125;SDS011;63008;53.112;8.896;2022-10-15T06:12:37;109.90;;;42.63;;
5125;SDS011;63008;53.112;8.896;2022-10-15T06:14:38;105.47;;;43.33;;
5125;SDS011;63008;53.112;8.896;2022-10-15T06:16:39;102.50;;;39.93;;
5125;SDS011;63008;53.112;8.896;2022-10-15T06:18:40;119.30;;;43.67;;
5125;SDS011;63008;53.112;8.896;2022-10-15T06:20:49;105.23;;;44.23;;
5125;SDS011;63008;53.112;8.896;2022-10-15T06:22:55;113.50;;;43.80;;
5125;SDS011;63008;53.112;8.896;2022-10-15T06:24:56;112.43;;;44.37;;
5125;SDS011;63008;53.112;8.896;2022-10-15T06:26:57;125.53;;;43.73;;
5125;SDS011;63008;53.112;8.896;2022-10-15T06:28:59;108.27;;;41.07;;
5125;SDS011;63008;53.112;8.896;2022-10-15T06:31:00;112.10;;;41.03;;
5125;SDS011;63008;53.112;8.896;2022-10-15T06:33:02;104.70;;;42.13;;
5125;SDS011;63008;53.112;8.896;2022-10-15T06:35:03;109.80;;;44.23;;
5125;SDS011;63008;53.112;8.896;2022-10-15T06:37:04;113.80;;;42.43;;
5125;SDS011;63008;53.112;8.896;2022-10-15T06:39:05;118.77;;;42.67;;
5125;SDS011;63008;53.112;8.896;2022-10-15T06:41:06;119.97;;;44.40;;
5125;SDS011;63008;53.112;8.896;2022-10-15T06:43:08;114.40;;;41.87;;
5125;SDS011;63008;53.112;8.896;2022-10-15T06:45:10;117.67;;;45.17;;
5125;SDS011;63008;53.112;8.896;2022-10-15T06:47:11;120.50;;;42.67;;
5125;SDS011;63008;53.112;8.896;2022-10-15T06:49:12;114.47;;;44.50;;
5125;SDS011;63008;53.112;8.896;2022-10-15T06:51:13;105.60;;;41.47;;
5125;SDS011;63008;53.112;8.896;2022-10-15T06:53:14;112.50;;;43.63;;
5125;SDS011;63008;53.112;8.896;2022-10-15T06:55:16;122.37;;;44.73;;
5125;SDS011;63008;53.112;8.896;2022-10-15T06:57:17;129.77;;;44.43;;
5125;SDS011;63008;53.112;8.896;2022-10-15T06:59:18;108.87;;;43.77;;
5125;SDS011;63008;53.112;8.896;2022-10-15T07:01:19;106.10;;;43.40;;
5125;SDS011;63008;53.112;8.896;2022-10-15T07:03:20;110.90;;;44.27;;
5125;SDS011;63008;53.112;8.896;2022-10-15T07:05:21;105.10;;;43.17;;
5125;SDS011;63008;53.112;8.896;2022-10-15T07:07:22;104.77;;;42.83;;
5125;SDS011;63008;53.112;8.896;2022-10-15T07:09:23;100.80;;;41.00;;
5125;SDS011;63008;53.112;8.896;2022-10-15T07:11:24;104.10;;;43.13;;
5125;SDS011;63008;53.112;8.896;2022-10-15T07:13:25;104.70;;;43.60;;
5125;SDS011;63008;53.112;8.896;2022-10-15T07:15:26;109.90;;;44.60;;
5125;SDS011;63008;53.112;8.896;2022-10-15T07:17:28;102.17;;;43.07;;
5125;SDS011;63008;53.112;8.896;2022-10-15T07:19:31;103.10;;;42.70;;
5125;SDS011;63008;53.112;8.896;2022-10-15T07:21:32;101.03;;;42.50;;
5125;SDS011;63008;53.112;8.896;2022-10-15T07:25:26;88.87;;;41.77;;
5125;SDS011;63008;53.112;8.896;2022-10-15T07:27:28;101.10;;;42.00;;
5125;SDS011;63008;53.112;8.896;2022-10-15T07:29:29;104.97;;;42.67;;
5125;SDS011;63008;53.112;8.896;2022-10-15T07:31:31;85.60;;;40.50;;
5125;SDS011;63008;53.112;8.896;2022-10-15T07:33:32;92.80;;;40.10;;
5125;SDS011;63008;53.112;8.896;2022-10-15T07:35:36;94.93;;;40.20;;
5125;SDS011;63008;53.112;8.896;2022-10-15T07:37:37;94.00;;;40.83;;
5125;SDS011;63008;53.112;8.896;2022-10-15T07:39:38;96.60;;;43.10;;
5125;SDS011;63008;53.112;8.896;2022-10-15T07:41:39;90.40;;;39.87;;
5125;SDS011;63008;53.112;8.896;2022-10-15T07:43:40;103.03;;;43.63;;
5125;SDS011;63008;53.112;8.896;2022-10-15T07:45:42;99.30;;;40.87;;
5125;SDS011;63008;53.112;8.896;2022-10-15T07:47:47;82.10;;;38.27;;
5125;SDS011;63008;53.112;8.896;2022-10-15T07:49:48;80.83;;;37.53;;
5125;SDS011;63008;53.112;8.896;2022-10-15T07:51:49;79.10;;;38.80;;
5125;SDS011;63008;53.112;8.896;2022-10-15T07:53:50;79.80;;;38.23;;
5125;SDS011;63008;53.112;8.896;2022-10-15T07:55:51;76.33;;;37.73;;
5125;SDS011;63008;53.112;8.896;2022-10-15T07:57:55;75.03;;;36.80;;
5125;SDS011;63008;53.112;8.896;2022-10-15T07:59:56;80.40;;;37.70;;
5125;SDS011;63008;53.112;8.896;2022-10-15T08:01:57;84.83;;;37.27;;
5125;SDS011;63008;53.112;8.896;2022-10-15T08:03:58;81.00;;;36.67;;
5125;SDS011;63008;53.112;8.896;2022-10-15T08:05:59;83.67;;;38.70;;
5125;SDS011;63008;53.112;8.896;2022-10-15T08:08:01;78.90;;;38.67;;
5125;SDS011;63008;53.112;8.896;2022-10-15T08:10:03;83.47;;;37.57;;
5125;SDS011;63008;53.112;8.896;2022-10-15T08:12:06;80.80;;;38.13;;
5125;SDS011;63008;53.112;8.896;2022-10-15T08:14:07;78.70;;;39.07;;
5125;SDS011;63008;53.112;8.896;2022-10-15T08:16:09;85.47;;;38.50;;
5125;SDS011;63008;53.112;8.896;2022-10-15T08:18:12;80.43;;;39.47;;
5125;SDS011;63008;53.112;8.896;2022-10-15T08:20:16;87.97;;;39.47;;
5125;SDS011;63008;53.112;8.896;2022-10-15T08:22:17;74.80;;;38.17;;
5125;SDS011;63008;53.112;8.896;2022-10-15T08:24:18;78.70;;;37.60;;
5125;SDS011;63008;53.112;8.896;2022-10-15T08:26:19;84.23;;;40.30;;
5125;SDS011;63008;53.112;8.896;2022-10-15T08:28:20;87.00;;;38.83;;
5125;SDS011;63008;53.112;8.896;2022-10-15T08:30:21;68.27;;;36.13;;
5125;SDS011;63008;53.112;8.896;2022-10-15T08:32:22;74.50;;;35.43;;
5125;SDS011;63008;53.112;8.896;2022-10-15T08:34:23;61.63;;;32.90;;
5125;SDS011;63008;53.112;8.896;2022-10-15T08:36:24;57.60;;;32.50;;
5125;SDS011;63008;53.112;8.896;2022-10-15T08:38:25;53.23;;;30.00;;
5125;SDS011;63008;53.112;8.896;2022-10-15T08:40:27;56.10;;;32.17;;
5125;SDS011;63008;53.112;8.896;2022-10-15T08:42:36;47.20;;;28.50;;
5125;SDS011;63008;53.112;8.896;2022-10-15T08:44:40;51.13;;;28.87;;
5125;SDS011;63008;53.112;8.896;2022-10-15T08:47:22;39.00;;;24.50;;
5125;SDS011;63008;53.112;8.896;2022-10-15T08:51:28;36.00;;;24.03;;
5125;SDS011;63008;53.112;8.896;2022-10-15T08:53:37;34.53;;;21.90;;
5125;SDS011;63008;53.112;8.896;2022-10-15T08:55:42;36.83;;;22.00;;
5125;SDS011;63008;53.112;8.896;2022-10-15T08:57:47;33.90;;;21.63;;
5125;SDS011;63008;53.112;8.896;2022-10-15T08:59:58;41.00;;;23.13;;
5125;SDS011;63008;53.112;8.896;2022-10-15T09:02:09;40.47;;;23.33;;
5125;SDS011;63008;53.112;8.896;2022-10-15T09:06:34;38.90;;;23.17;;
5125;SDS011;63008;53.112;8.896;2022-10-15T09:10:42;35.00;;;21.93;;
5125;SDS011;63008;53.112;8.896;2022-10-15T09:12:46;39.90;;;23.80;;
5125;SDS011;63008;53.112;8.896;2022-10-15T09:14:53;38.67;;;23.93;;
5125;SDS011;63008;53.112;8.896;2022-10-15T09:16:58;38.43;;;22.77;;
5125;SDS011;63008;53.112;8.896;2022-10-15T09:19:05;34.33;;;21.60;;
5125;SDS011;63008;53.112;8.896;2022-10-15T09:21:14;41.50;;;24.23;;
5125;SDS011;63008;53.112;8.896;2022-10-15T09:23:20;43.93;;;24.67;;
5125;SDS011;63008;53.112;8.896;2022-10-15T09:25:24;38.90;;;23.40;;
5125;SDS011;63008;53.112;8.896;2022-10-15T09:27:34;39.30;;;23.53;;
5125;SDS011;63008;53.112;8.896;2022-10-15T09:29:47;41.93;;;24.17;;
5125;SDS011;63008;53.112;8.896;2022-10-15T09:32:02;42.40;;;24.13;;
5125;SDS011;63008;53.112;8.896;2022-10-15T09:34:28;46.60;;;25.23;;
5125;SDS011;63008;53.112;8.896;2022-10-15T09:36:36;41.30;;;23.40;;
5125;SDS011;63008;53.112;8.896;2022-10-15T09:38:57;40.83;;;23.23;;
5125;SDS011;63008;53.112;8.896;2022-10-15T09:41:24;39.90;;;24.10;;
5125;SDS011;63008;53.112;8.896;2022-10-15T09:43:29;39.47;;;23.57;;
5125;SDS011;63008;53.112;8.896;2022-10-15T09:45:34;43.13;;;24.50;;
5125;SDS011;63008;53.112;8.896;2022-10-15T09:47:36;39.27;;;22.77;;
5125;SDS011;63008;53.112;8.896;2022-10-15T09:49:40;39.30;;;21.83;;
5125;SDS011;63008;53.112;8.896;2022-10-15T09:51:47;37.60;;;22.83;;
5125;SDS011;63008;53.112;8.896;2022-10-15T09:56:42;38.00;;;22.30;;
5125;SDS011;63008;53.112;8.896;2022-10-15T09:58:57;36.23;;;21.80;;
5125;SDS011;63008;53.112;8.896;2022-10-15T10:01:03;31.20;;;20.20;;
5125;SDS011;63008;53.112;8.896;2022-10-15T10:03:07;32.83;;;20.60;;
5125;SDS011;63008;53.112;8.896;2022-10-15T10:05:19;32.23;;;19.20;;
5125;SDS011;63008;53.112;8.896;2022-10-15T10:07:36;32.23;;;19.40;;
5125;SDS011;63008;53.112;8.896;2022-10-15T10:09:47;32.53;;;19.87;;
5125;SDS011;63008;53.112;8.896;2022-10-15T10:11:52;29.60;;;19.53;;
5125;SDS011;63008;53.112;8.896;2022-10-15T10:13:56;27.00;;;18.93;;
5125;SDS011;63008;53.112;8.896;2022-10-15T10:16:08;35.87;;;19.63;;
5125;SDS011;63008;53.112;8.896;2022-10-15T10:18:17;29.00;;;18.20;;
5125;SDS011;63008;53.112;8.896;2022-10-15T10:20:22;27.70;;;17.97;;
5125;SDS011;63008;53.112;8.896;2022-10-15T10:22:24;24.20;;;17.43;;
5125;SDS011;63008;53.112;8.896;2022-10-15T10:24:26;28.17;;;17.80;;
5125;SDS011;63008;53.112;8.896;2022-10-15T10:26:33;25.60;;;16.90;;
5125;SDS011;63008;53.112;8.896;2022-10-15T10:28:51;28.53;;;18.83;;
5125;SDS011;63008;53.112;8.896;2022-10-15T10:32:56;26.63;;;18.67;;
5125;SDS011;63008;53.112;8.896;2022-10-15T10:34:59;26.43;;;18.00;;
5125;SDS011;63008;53.112;8.896;2022-10-15T10:37:03;22.07;;;17.17;;
5125;SDS011;63008;53.112;8.896;2022-10-15T10:39:11;23.50;;;17.27;;
5125;SDS011;63008;53.112;8.896;2022-10-15T10:41:49;27.93;;;17.80;;
5125;SDS011;63008;53.112;8.896;2022-10-15T10:43:52;27.17;;;18.57;;
5125;SDS011;63008;53.112;8.896;2022-10-15T10:48:19;27.03;;;19.10;;
5125;SDS011;63008;53.112;8.896;2022-10-15T10:50:27;27.53;;;20.03;;
5125;SDS011;63008;53.112;8.896;2022-10-15T10:52:40;28.80;;;21.53;;
5125;SDS011;63008;53.112;8.896;2022-10-15T10:54:41;24.40;;;18.60;;
5125;SDS011;63008;53.112;8.896;2022-10-15T10:56:43;25.77;;;19.20;;
5125;SDS011;63008;53.112;8.896;2022-10-15T10:58:44;28.23;;;20.70;;
5125;SDS011;63008;53.112;8.896;2022-10-15T11:00:46;29.13;;;20.47;;
5125;SDS011;63008;53.112;8.896;2022-10-15T11:02:50;23.80;;;19.47;;
5125;SDS011;63008;53.112;8.896;2022-10-15T11:04:52;26.53;;;19.93;;
5125;SDS011;63008;53.112;8.896;2022-10-15T11:06:58;30.87;;;19.73;;
5125;SDS011;63008;53.112;8.896;2022-10-15T11:11:28;32.47;;;21.00;;
5125;SDS011;63008;53.112;8.896;2022-10-15T11:13:54;40.13;;;24.27;;
5125;SDS011;63008;53.112;8.896;2022-10-15T11:16:14;27.90;;;22.30;;
5125;SDS011;63008;53.112;8.896;2022-10-15T11:18:36;29.70;;;21.73;;
5125;SDS011;63008;53.112;8.896;2022-10-15T11:20:51;34.60;;;22.50;;
5125;SDS011;63008;53.112;8.896;2022-10-15T11:23:22;36.10;;;24.00;;
5125;SDS011;63008;53.112;8.896;2022-10-15T11:28:40;38.37;;;26.97;;
5125;SDS011;63008;53.112;8.896;2022-10-15T11:31:04;38.33;;;28.23;;
5125;SDS011;63008;53.112;8.896;2022-10-15T11:38:18;36.93;;;28.77;;
5125;SDS011;63008;53.112;8.896;2022-10-15T11:40:35;41.47;;;27.60;;
5125;SDS011;63008;53.112;8.896;2022-10-15T11:42:45;38.70;;;28.10;;
5125;SDS011;63008;53.112;8.896;2022-10-15T11:44:53;49.83;;;28.37;;
5125;SDS011;63008;53.112;8.896;2022-10-15T11:47:53;38.47;;;27.73;;
5125;SDS011;63008;53.112;8.896;2022-10-15T11:54:44;37.47;;;25.43;;
5125;SDS011;63008;53.112;8.896;2022-10-15T11:56:55;32.93;;;24.03;;
5125;SDS011;63008;53.112;8.896;2022-10-15T11:59:00;30.90;;;23.60;;
5125;SDS011;63008;53.112;8.896;2022-10-15T12:01:11;34.43;;;23.20;;
5125;SDS011;63008;53.112;8.896;2022-10-15T12:03:23;29.70;;;22.00;;
5125;SDS011;63008;53.112;8.896;2022-10-15T12:07:39;35.33;;;20.93;;
5125;SDS011;63008;53.112;8.896;2022-10-15T12:09:42;31.03;;;19.50;;
5125;SDS011;63008;53.112;8.896;2022-10-15T12:14:11;29.70;;;17.57;;
5125;SDS011;63008;53.112;8.896;2022-10-15T12:20:26;20.13;;;12.87;;
5125;SDS011;63008;53.112;8.896;2022-10-15T12:22:36;15.70;;;11.83;;
5125;SDS011;63008;53.112;8.896;2022-10-15T12:26:51;14.50;;;10.60;;
5125;SDS011;63008;53.112;8.896;2022-10-15T12:28:53;15.80;;;11.37;;
5125;SDS011;63008;53.112;8.896;2022-10-15T12:31:02;13.37;;;10.63;;
5125;SDS011;63008;53.112;8.896;2022-10-15T12:33:25;16.50;;;11.20;;
5125;SDS011;63008;53.112;8.896;2022-10-15T12:35:34;16.77;;;10.70;;
5125;SDS011;63008;53.112;8.896;2022-10-15T12:37:38;18.90;;;12.70;;
5125;SDS011;63008;53.112;8.896;2022-10-15T12:39:39;17.23;;;12.50;;
5125;SDS011;63008;53.112;8.896;2022-10-15T12:41:43;16.87;;;12.97;;
5125;SDS011;63008;53.112;8.896;2022-10-15T12:43:50;17.03;;;12.47;;
5125;SDS011;63008;53.112;8.896;2022-10-15T12:46:04;17.30;;;13.30;;
5125;SDS011;63008;53.112;8.896;2022-10-15T12:50:15;18.40;;;12.00;;
5125;SDS011;63008;53.112;8.896;2022-10-15T12:55:13;18.30;;;13.03;;
5125;SDS011;63008;53.112;8.896;2022-10-15T13:05:48;18.83;;;14.20;;
5125;SDS011;63008;53.112;8.896;2022-10-15T13:07:49;16.13;;;13.17;;
5125;SDS011;63008;53.112;8.896;2022-10-15T13:09:51;17.83;;;14.80;;
5125;SDS011;63008;53.112;8.896;2022-10-15T13:11:53;15.00;;;13.40;;
5125;SDS011;63008;53.112;8.896;2022-10-15T13:16:28;13.93;;;12.43;;
5125;SDS011;63008;53.112;8.896;2022-10-15T13:18:30;16.30;;;13.43;;
5125;SDS011;63008;53.112;8.896;2022-10-15T13:20:41;20.80;;;14.33;;
5125;SDS011;63008;53.112;8.896;2022-10-15T13:22:44;17.60;;;13.83;;
5125;SDS011;63008;53.112;8.896;2022-10-15T13:24:45;19.27;;;15.37;;
5125;SDS011;63008;53.112;8.896;2022-10-15T13:26:46;20.13;;;16.00;;
5125;SDS011;63008;53.112;8.896;2022-10-15T13:28:48;25.93;;;15.77;;
5125;SDS011;63008;53.112;8.896;2022-10-15T13:30:50;30.83;;;17.50;;
5125;SDS011;63008;53.112;8.896;2022-10-15T13:32:52;20.30;;;16.23;;
5125;SDS011;63008;53.112;8.896;2022-10-15T13:34:54;21.47;;;16.50;;
5125;SDS011;63008;53.112;8.896;2022-10-15T13:37:00;22.73;;;16.90;;